createdAt,value
2023-02-06T00:00:02.277Z,22.83
2023-02-06T00:02:28.608Z,22.80
2023-02-06T00:04:54.948Z,22.78
2023-02-06T00:07:21.268Z,22.75
2023-02-06T00:09:47.600Z,22.74
2023-02-06T00:12:13.930Z,22.73
2023-02-06T00:14:40.286Z,22.70
2023-02-06T00:17:06.901Z,22.67
2023-02-06T00:19:33.303Z,22.65
2023-02-06T00:21:59.612Z,22.61
2023-02-06T00:24:25.936Z,22.57
2023-02-06T00:26:52.253Z,22.55
2023-02-06T00:29:18.580Z,22.52
2023-02-06T00:31:44.980Z,22.50
2023-02-06T00:34:11.324Z,22.49
2023-02-06T00:36:37.637Z,22.49
2023-02-06T00:39:04.252Z,22.49
2023-02-06T00:41:30.565Z,22.47
2023-02-06T00:43:56.905Z,22.46
2023-02-06T00:46:23.268Z,22.44
2023-02-06T00:48:49.646Z,22.43
2023-02-06T00:51:15.961Z,22.42
2023-02-06T00:53:42.306Z,22.39
2023-02-06T00:56:08.606Z,22.36
2023-02-06T00:58:34.936Z,22.33
2023-02-06T01:01:01.248Z,22.30
2023-02-06T01:03:27.591Z,22.27
2023-02-06T01:05:53.899Z,22.25
2023-02-06T01:08:20.226Z,22.22
2023-02-06T01:10:46.534Z,22.20
2023-02-06T01:13:12.915Z,22.17
2023-02-06T01:15:39.221Z,22.15
2023-02-06T01:18:05.726Z,22.13
2023-02-06T01:20:32.542Z,22.10
2023-02-06T01:22:58.847Z,22.09
2023-02-06T01:25:25.163Z,22.07
2023-02-06T01:27:51.552Z,22.06
2023-02-06T01:30:17.889Z,22.04
2023-02-06T01:32:44.473Z,22.02
2023-02-06T01:35:10.968Z,22.02
2023-02-06T01:37:37.342Z,22.01
2023-02-06T01:40:04.418Z,21.99
2023-02-06T01:42:30.728Z,21.97
2023-02-06T01:45:15.770Z,21.95
2023-02-06T01:47:42.067Z,21.95
2023-02-06T01:50:08.385Z,21.93
2023-02-06T01:52:34.691Z,21.90
2023-02-06T01:55:01.339Z,21.88
2023-02-06T01:57:27.661Z,21.86
2023-02-06T01:59:54.827Z,21.83
2023-02-06T02:02:21.270Z,21.81
2023-02-06T02:04:47.635Z,21.80
2023-02-06T02:07:13.900Z,21.82
2023-02-06T02:09:40.283Z,21.85
2023-02-06T02:12:06.777Z,21.87
2023-02-06T02:14:33.178Z,21.88
2023-02-06T02:17:11.693Z,21.88
2023-02-06T02:19:41.066Z,21.88
2023-02-06T02:22:16.443Z,21.88
2023-02-06T02:24:45.577Z,21.86
2023-02-06T02:27:21.257Z,21.86
2023-02-06T02:30:01.354Z,21.84
2023-02-06T02:32:36.724Z,21.80
2023-02-06T02:35:15.173Z,21.80
2023-02-06T02:38:01.262Z,21.79
2023-02-06T02:40:36.893Z,21.76
2023-02-06T02:43:14.213Z,21.75
2023-02-06T02:45:40.450Z,21.71
2023-02-06T02:48:26.943Z,21.69
2023-02-06T02:50:53.881Z,21.67
2023-02-06T02:53:20.160Z,21.65
2023-02-06T02:55:46.438Z,21.63
2023-02-06T02:58:13.639Z,21.61
2023-02-06T03:00:43.210Z,21.58
2023-02-06T03:03:10.939Z,21.57
2023-02-06T03:05:39.887Z,21.55
2023-02-06T03:08:29.406Z,21.54
2023-02-06T03:10:55.622Z,21.56
2023-02-06T03:13:43.001Z,21.58
2023-02-06T03:16:21.442Z,21.59
2023-02-06T03:18:53.311Z,21.57
2023-02-06T03:21:20.222Z,21.57
2023-02-06T03:23:47.579Z,21.56
2023-02-06T03:26:14.294Z,21.54
2023-02-06T03:28:44.576Z,21.56
2023-02-06T03:31:12.048Z,21.54
2023-02-06T03:33:40.347Z,21.56
2023-02-06T03:36:06.801Z,21.57
2023-02-06T03:38:33.347Z,21.57
2023-02-06T03:41:05.542Z,21.62
2023-02-06T03:43:31.908Z,21.57
2023-02-06T03:46:00.421Z,21.55
2023-02-06T03:48:31.426Z,21.55
2023-02-06T03:50:57.768Z,21.53
2023-02-06T03:53:24.075Z,21.52
2023-02-06T03:55:50.680Z,21.51
2023-02-06T03:58:16.992Z,21.49
2023-02-06T04:00:43.386Z,21.47
2023-02-06T04:03:12.971Z,21.45
2023-02-06T04:05:39.311Z,21.50
2023-02-06T04:08:05.647Z,21.52
2023-02-06T04:10:31.962Z,21.54
2023-02-06T04:12:58.277Z,21.52
2023-02-06T04:15:24.596Z,21.52
2023-02-06T04:17:59.882Z,21.56
2023-02-06T04:20:27.155Z,21.50
2023-02-06T04:22:53.466Z,21.47
2023-02-06T04:25:19.826Z,21.44
2023-02-06T04:27:46.325Z,21.43
2023-02-06T04:30:12.995Z,21.41
2023-02-06T04:32:39.309Z,21.40
2023-02-06T04:35:05.650Z,21.38
2023-02-06T04:37:32.231Z,21.37
2023-02-06T04:39:58.587Z,21.35
2023-02-06T04:42:25.060Z,21.33
2023-02-06T04:44:51.391Z,21.32
2023-02-06T04:47:17.711Z,21.31
2023-02-06T04:49:44.044Z,21.32
2023-02-06T04:52:10.473Z,21.34
2023-02-06T04:54:36.846Z,21.35
2023-02-06T04:57:03.160Z,21.34
2023-02-06T04:59:29.489Z,21.33
2023-02-06T05:01:55.794Z,21.31
2023-02-06T05:04:22.114Z,21.32
2023-02-06T05:06:48.471Z,21.33
2023-02-06T05:09:14.788Z,21.30
2023-02-06T05:11:41.135Z,21.26
2023-02-06T05:14:07.471Z,21.21
2023-02-06T05:16:33.803Z,21.21
2023-02-06T05:19:00.119Z,21.18
2023-02-06T05:21:26.461Z,21.15
2023-02-06T05:23:52.772Z,21.12
2023-02-06T05:26:19.108Z,21.12
2023-02-06T05:28:45.427Z,21.10
2023-02-06T05:31:18.236Z,21.08
2023-02-06T05:33:45.089Z,21.10
2023-02-06T05:36:11.407Z,21.14
2023-02-06T05:38:37.721Z,21.17
2023-02-06T05:41:04.047Z,21.16
2023-02-06T05:43:30.392Z,21.14
2023-02-06T05:45:56.731Z,21.12
2023-02-06T05:48:23.056Z,21.13
2023-02-06T05:50:49.559Z,21.12
2023-02-06T05:53:16.374Z,21.12
2023-02-06T05:55:42.955Z,21.10
2023-02-06T05:58:09.268Z,21.13
2023-02-06T06:00:35.845Z,21.13
2023-02-06T06:03:02.156Z,21.11
2023-02-06T06:05:29.308Z,21.12
2023-02-06T06:07:55.613Z,21.12
2023-02-06T06:10:21.955Z,21.12
2023-02-06T06:12:48.264Z,21.10
2023-02-06T06:15:14.591Z,21.08
2023-02-06T06:17:40.908Z,21.07
2023-02-06T06:20:07.288Z,21.05
2023-02-06T06:22:33.603Z,20.98
2023-02-06T06:24:59.969Z,20.99
2023-02-06T06:27:26.289Z,20.95
2023-02-06T06:29:52.621Z,20.94
2023-02-06T06:32:19.176Z,20.93
2023-02-06T06:34:45.522Z,20.92
2023-02-06T06:37:11.830Z,20.95
2023-02-06T06:39:38.173Z,20.97
2023-02-06T06:42:04.490Z,20.95
2023-02-06T06:44:31.157Z,20.95
2023-02-06T06:46:57.490Z,20.97
2023-02-06T06:49:24.141Z,20.95
2023-02-06T06:51:50.491Z,20.96
2023-02-06T06:54:16.873Z,20.95
2023-02-06T06:56:43.221Z,20.95
2023-02-06T06:59:09.587Z,20.95
2023-02-06T07:01:35.957Z,20.94
2023-02-06T07:04:02.271Z,20.95
2023-02-06T07:06:29.103Z,20.92
2023-02-06T07:08:55.407Z,20.95
2023-02-06T07:11:21.761Z,20.95
2023-02-06T07:13:48.085Z,20.92
2023-02-06T07:16:14.528Z,20.92
2023-02-06T07:18:42.845Z,20.91
2023-02-06T07:21:09.327Z,20.90
2023-02-06T07:23:38.741Z,20.89
2023-02-06T07:26:05.108Z,20.90
2023-02-06T07:28:31.596Z,20.87
2023-02-06T07:31:01.417Z,20.85
2023-02-06T07:33:27.831Z,20.84
2023-02-06T07:35:54.155Z,20.88
2023-02-06T07:38:20.469Z,20.92
2023-02-06T07:40:46.841Z,20.94
2023-02-06T07:43:13.402Z,20.98
2023-02-06T07:45:39.962Z,21.08
2023-02-06T07:48:06.461Z,21.21
2023-02-06T07:50:32.812Z,21.31
2023-02-06T07:52:59.119Z,21.44
2023-02-06T07:55:25.457Z,21.57
2023-02-06T07:57:51.787Z,21.63
2023-02-06T08:00:18.151Z,21.69
2023-02-06T08:02:44.534Z,21.73
2023-02-06T08:05:10.873Z,21.77
2023-02-06T08:07:37.196Z,21.82
2023-02-06T08:10:03.664Z,21.86
2023-02-06T08:12:30.125Z,21.84
2023-02-06T08:14:56.455Z,21.84
2023-02-06T08:17:22.784Z,21.85
2023-02-06T08:19:49.109Z,21.85
2023-02-06T08:22:15.433Z,21.88
2023-02-06T08:24:41.744Z,21.91
2023-02-06T08:27:08.073Z,21.95
2023-02-06T08:29:40.322Z,21.95
2023-02-06T08:32:06.658Z,22.01
2023-02-06T08:34:33.343Z,21.86
2023-02-06T08:36:59.664Z,21.73
2023-02-06T08:39:25.968Z,21.70
2023-02-06T08:41:52.544Z,21.67
2023-02-06T08:44:18.876Z,21.60
2023-02-06T08:46:45.620Z,21.57
2023-02-06T08:49:12.910Z,21.55
2023-02-06T08:51:39.241Z,21.58
2023-02-06T08:54:06.318Z,21.60
2023-02-06T08:56:32.980Z,21.65
2023-02-06T08:58:59.706Z,21.72
2023-02-06T09:01:26.386Z,21.77
2023-02-06T09:03:55.972Z,21.82
2023-02-06T09:06:22.304Z,21.78
2023-02-06T09:08:48.626Z,21.78
2023-02-06T09:11:15.702Z,21.83
2023-02-06T09:13:42.425Z,21.87
2023-02-06T09:16:08.868Z,21.89
2023-02-06T09:18:35.385Z,22.11
2023-02-06T09:21:10.115Z,22.32
2023-02-06T09:23:36.549Z,22.43
2023-02-06T09:26:02.939Z,22.52
2023-02-06T09:28:29.290Z,22.63
2023-02-06T09:30:55.873Z,22.71
2023-02-06T09:33:22.286Z,22.78
2023-02-06T09:35:48.638Z,22.82
2023-02-06T09:38:14.971Z,22.79
2023-02-06T09:40:41.311Z,22.80
2023-02-06T09:43:07.641Z,22.82
2023-02-06T09:45:34.338Z,22.86
2023-02-06T09:48:06.452Z,22.81
2023-02-06T09:50:40.106Z,22.71
2023-02-06T09:53:11.170Z,22.65
2023-02-06T09:55:41.629Z,22.60
2023-02-06T09:58:19.067Z,22.55
2023-02-06T10:00:53.235Z,22.52
2023-02-06T10:03:35.448Z,22.48
2023-02-06T10:06:07.942Z,22.45
2023-02-06T10:08:36.068Z,22.42
2023-02-06T10:11:03.774Z,22.39
2023-02-06T10:13:34.380Z,22.37
2023-02-06T10:16:03.424Z,22.35
2023-02-06T10:18:36.684Z,22.33
2023-02-06T10:21:06.909Z,22.31
2023-02-06T10:23:47.722Z,22.32
2023-02-06T10:26:18.140Z,22.32
2023-02-06T10:28:45.326Z,22.32
2023-02-06T10:31:20.898Z,22.32
2023-02-06T10:33:55.811Z,22.30
2023-02-06T10:36:25.995Z,22.27
2023-02-06T10:39:11.411Z,22.28
2023-02-06T10:42:05.219Z,22.33
2023-02-06T10:44:34.499Z,22.35
2023-02-06T10:47:00.932Z,22.36
2023-02-06T10:49:30.341Z,22.36
2023-02-06T10:51:57.805Z,22.37
2023-02-06T10:54:25.181Z,22.37
2023-02-06T10:56:52.174Z,22.37
2023-02-06T10:59:22.310Z,22.42
2023-02-06T11:01:49.087Z,22.42
2023-02-06T11:04:16.870Z,22.45
2023-02-06T11:06:43.277Z,22.48
2023-02-06T11:09:09.859Z,22.50
2023-02-06T11:11:37.120Z,22.53
2023-02-06T11:14:07.762Z,22.53
2023-02-06T11:16:36.085Z,22.55
2023-02-06T11:19:02.609Z,22.56
2023-02-06T11:21:41.114Z,22.59
2023-02-06T11:24:08.145Z,22.64
2023-02-06T11:26:39.287Z,22.71
2023-02-06T11:29:09.762Z,22.75
2023-02-06T11:31:49.974Z,22.76
2023-02-06T11:34:23.443Z,22.83
2023-02-06T11:36:54.055Z,22.85
2023-02-06T11:39:25.362Z,22.89
2023-02-06T11:42:00.681Z,22.94
2023-02-06T11:44:27.781Z,22.98
2023-02-06T11:46:54.124Z,23.03
2023-02-06T11:49:20.375Z,23.04
2023-02-06T11:51:54.145Z,23.08
2023-02-06T11:54:21.816Z,23.09
2023-02-06T11:56:59.395Z,23.12
2023-02-06T11:59:27.626Z,23.18
2023-02-06T12:01:54.050Z,23.18
2023-02-06T12:04:23.796Z,23.25
2023-02-06T12:06:54.333Z,23.27
2023-02-06T12:09:20.656Z,23.42
2023-02-06T12:11:52.110Z,23.53
2023-02-06T12:14:30.300Z,23.59
2023-02-06T12:16:56.939Z,23.61
2023-02-06T12:19:35.375Z,23.51
2023-02-06T12:22:03.781Z,23.42
2023-02-06T12:24:31.393Z,23.31
2023-02-06T12:27:02.426Z,23.20
2023-02-06T12:29:33.344Z,23.17
2023-02-06T12:32:00.166Z,23.12
2023-02-06T12:34:28.722Z,23.13
2023-02-06T12:37:00.328Z,23.24
2023-02-06T12:39:30.185Z,23.31
2023-02-06T12:42:15.466Z,23.29
2023-02-06T12:45:01.723Z,23.31
2023-02-06T12:47:30.559Z,23.37
2023-02-06T12:50:00.022Z,23.31
2023-02-06T12:52:31.365Z,23.24
2023-02-06T12:55:01.278Z,23.12
2023-02-06T12:57:28.054Z,23.06
2023-02-06T13:00:03.778Z,22.99
2023-02-06T13:02:42.108Z,22.91
2023-02-06T13:05:15.825Z,22.84
2023-02-06T13:07:49.421Z,22.79
2023-02-06T13:10:19.566Z,22.81
2023-02-06T13:12:52.662Z,22.82
2023-02-06T13:15:37.688Z,22.81
2023-02-06T13:18:24.149Z,22.78
2023-02-06T13:21:09.261Z,22.72
2023-02-06T13:23:35.601Z,22.78
2023-02-06T13:26:03.188Z,22.83
2023-02-06T13:28:29.510Z,22.83
2023-02-06T13:30:59.606Z,22.86
2023-02-06T13:33:26.012Z,22.85
2023-02-06T13:35:59.092Z,22.85
2023-02-06T13:38:35.491Z,22.88
2023-02-06T13:41:14.417Z,22.91
2023-02-06T13:44:00.222Z,22.93
2023-02-06T13:46:46.827Z,22.92
2023-02-06T13:49:36.294Z,22.92
2023-02-06T13:52:21.395Z,22.93
2023-02-06T13:54:51.664Z,22.95
2023-02-06T13:57:31.438Z,22.77
2023-02-06T14:00:16.872Z,22.71
2023-02-06T14:03:15.576Z,22.66
2023-02-06T14:05:42.328Z,22.66
2023-02-06T14:08:15.730Z,22.94
2023-02-06T14:11:06.972Z,22.42
2023-02-06T14:13:36.399Z,22.35
2023-02-06T14:16:02.736Z,22.35
2023-02-06T14:18:46.958Z,22.38
2023-02-06T14:21:35.317Z,22.35
2023-02-06T14:24:05.794Z,22.33
2023-02-06T14:26:35.196Z,22.31
2023-02-06T14:29:20.671Z,22.27
2023-02-06T14:31:46.993Z,22.24
2023-02-06T14:34:25.300Z,22.22
2023-02-06T14:36:54.800Z,22.17
2023-02-06T14:39:33.817Z,22.16
2023-02-06T14:42:00.226Z,22.14
2023-02-06T14:44:30.033Z,22.14
2023-02-06T14:46:56.386Z,22.10
2023-02-06T14:49:29.970Z,22.08
2023-02-06T14:51:56.322Z,22.01
2023-02-06T14:54:28.786Z,21.94
2023-02-06T14:56:55.457Z,21.89
2023-02-06T14:59:21.809Z,21.90
2023-02-06T15:01:48.996Z,21.92
2023-02-06T15:04:16.408Z,21.90
2023-02-06T15:06:44.366Z,21.90
2023-02-06T15:09:24.017Z,21.93
2023-02-06T15:11:51.181Z,21.93
2023-02-06T15:14:19.870Z,21.91
2023-02-06T15:16:46.881Z,21.89
2023-02-06T15:19:16.914Z,21.88
2023-02-06T15:21:43.293Z,21.89
2023-02-06T15:24:14.745Z,21.92
2023-02-06T15:26:47.149Z,21.88
2023-02-06T15:29:22.905Z,21.83
2023-02-06T15:31:50.100Z,21.86
2023-02-06T15:34:17.772Z,21.76
2023-02-06T15:36:44.087Z,21.71
2023-02-06T15:39:10.889Z,21.68
2023-02-06T15:41:37.219Z,21.66
2023-02-06T15:44:09.332Z,21.63
2023-02-06T15:46:35.665Z,21.62
2023-02-06T15:49:02.012Z,21.60
2023-02-06T15:51:41.182Z,21.58
2023-02-06T15:54:09.360Z,21.55
2023-02-06T15:56:36.937Z,21.54
2023-02-06T15:59:04.058Z,21.51
2023-02-06T16:01:31.160Z,21.49
2023-02-06T16:03:59.731Z,21.45
2023-02-06T16:06:26.127Z,21.43
2023-02-06T16:08:53.961Z,21.43
2023-02-06T16:11:39.166Z,21.40
2023-02-06T16:14:05.640Z,21.39
2023-02-06T16:16:31.977Z,21.41
2023-02-06T16:18:58.532Z,21.39
2023-02-06T16:21:27.001Z,21.39
2023-02-06T16:24:03.062Z,21.38
2023-02-06T16:26:30.136Z,21.36
2023-02-06T16:28:56.462Z,21.34
2023-02-06T16:31:23.174Z,21.34
2023-02-06T16:33:50.620Z,21.30
2023-02-06T16:36:17.451Z,21.30
2023-02-06T16:38:48.435Z,21.28
2023-02-06T16:41:24.394Z,21.27
2023-02-06T16:43:50.882Z,21.26
2023-02-06T16:46:17.225Z,21.20
2023-02-06T16:48:43.585Z,21.23
2023-02-06T16:51:11.983Z,21.21
2023-02-06T16:53:38.305Z,21.19
2023-02-06T16:56:04.688Z,21.18
2023-02-06T16:58:32.310Z,21.14
2023-02-06T17:00:58.653Z,21.16
2023-02-06T17:03:25.347Z,21.15
2023-02-06T17:05:53.733Z,21.14
2023-02-06T17:08:21.733Z,21.14
2023-02-06T17:10:48.100Z,21.11
2023-02-06T17:13:15.364Z,21.10
2023-02-06T17:15:41.777Z,21.08
2023-02-06T17:18:09.998Z,21.05
2023-02-06T17:20:37.415Z,21.03
2023-02-06T17:23:04.071Z,21.01
2023-02-06T17:25:30.450Z,21.01
2023-02-06T17:27:56.811Z,21.00
2023-02-06T17:30:23.503Z,21.01
2023-02-06T17:32:49.859Z,20.99
2023-02-06T17:35:16.417Z,20.99
2023-02-06T17:37:44.950Z,21.02
2023-02-06T17:40:18.192Z,21.01
2023-02-06T17:42:44.533Z,21.02
2023-02-06T17:45:10.891Z,21.01
2023-02-06T17:47:37.199Z,21.00
2023-02-06T17:50:03.880Z,21.01
2023-02-06T17:52:30.213Z,20.98
2023-02-06T17:54:56.546Z,20.97
2023-02-06T17:57:22.856Z,20.95
2023-02-06T17:59:51.763Z,20.93
2023-02-06T18:02:18.076Z,20.89
2023-02-06T18:04:44.410Z,20.89
2023-02-06T18:07:10.758Z,20.87
2023-02-06T18:09:37.116Z,20.85
2023-02-06T18:12:03.479Z,20.84
2023-02-06T18:14:29.897Z,20.83
2023-02-06T18:16:56.277Z,20.80
2023-02-06T18:19:25.067Z,20.81
2023-02-06T18:21:51.425Z,20.79
2023-02-06T18:24:17.765Z,20.78
2023-02-06T18:26:44.087Z,20.78
2023-02-06T18:29:10.430Z,20.76
2023-02-06T18:31:36.792Z,20.74
2023-02-06T18:34:03.845Z,20.72
2023-02-06T18:36:30.224Z,20.74
2023-02-06T18:38:56.810Z,20.77
2023-02-06T18:41:41.777Z,20.73
2023-02-06T18:44:08.468Z,20.69
2023-02-06T18:46:34.848Z,20.67
2023-02-06T18:49:01.296Z,20.64
2023-02-06T18:51:29.021Z,20.73
2023-02-06T18:53:55.404Z,20.84
2023-02-06T18:56:21.716Z,20.95
2023-02-06T18:58:48.044Z,21.08
2023-02-06T19:01:21.214Z,21.30
2023-02-06T19:03:47.828Z,21.65
2023-02-06T19:06:18.570Z,21.88
2023-02-06T19:08:46.601Z,21.98
2023-02-06T19:11:13.232Z,22.08
2023-02-06T19:13:40.584Z,22.24
2023-02-06T19:16:07.692Z,22.34
2023-02-06T19:18:38.921Z,22.44
2023-02-06T19:21:07.459Z,22.50
2023-02-06T19:23:34.859Z,22.54
2023-02-06T19:26:01.425Z,22.61
2023-02-06T19:28:27.737Z,22.64
2023-02-06T19:30:54.147Z,22.70
2023-02-06T19:33:20.521Z,22.75
2023-02-06T19:35:46.915Z,22.78
2023-02-06T19:38:13.231Z,22.82
2023-02-06T19:40:39.855Z,22.83
2023-02-06T19:43:06.301Z,22.85
2023-02-06T19:45:34.626Z,22.92
2023-02-06T19:48:00.995Z,22.99
2023-02-06T19:50:27.320Z,23.04
2023-02-06T19:52:53.640Z,23.09
2023-02-06T19:55:20.213Z,23.17
2023-02-06T19:57:46.516Z,23.23
2023-02-06T20:00:12.982Z,23.31
2023-02-06T20:02:40.224Z,23.38
2023-02-06T20:05:06.985Z,23.40
2023-02-06T20:07:33.424Z,23.41
2023-02-06T20:09:59.744Z,23.35
2023-02-06T20:12:26.070Z,23.21
2023-02-06T20:17:18.738Z,23.46
2023-02-06T20:19:45.051Z,23.50
2023-02-06T20:22:11.359Z,23.57
2023-02-06T20:24:37.675Z,23.61
2023-02-06T20:27:05.678Z,23.62
2023-02-06T20:29:32.953Z,23.62
2023-02-06T20:31:59.554Z,23.60
2023-02-06T20:34:26.739Z,23.67
2023-02-06T20:36:53.340Z,23.62
2023-02-06T20:39:19.660Z,23.74
2023-02-06T20:41:46.074Z,23.88
2023-02-06T20:44:12.962Z,24.07
2023-02-06T20:46:39.574Z,24.22
2023-02-06T20:49:09.173Z,24.35
2023-02-06T20:51:35.549Z,24.47
2023-02-06T20:54:01.988Z,24.22
2023-02-06T20:56:28.535Z,23.88
2023-02-06T20:58:56.230Z,23.88
2023-02-06T21:01:23.666Z,23.87
2023-02-06T21:03:50.364Z,23.90
2023-02-06T21:06:16.712Z,23.93
2023-02-06T21:08:43.027Z,24.04
2023-02-06T21:11:09.396Z,23.94
2023-02-06T21:13:35.705Z,23.93
2023-02-06T21:16:02.207Z,23.97
2023-02-06T21:18:29.396Z,24.01
2023-02-06T21:20:55.714Z,24.00
2023-02-06T21:23:22.543Z,24.03
2023-02-06T21:25:52.328Z,24.00
2023-02-06T21:28:18.800Z,24.05
2023-02-06T21:30:45.585Z,24.07
2023-02-06T21:33:12.062Z,24.18
2023-02-06T21:35:40.242Z,24.10
2023-02-06T21:38:07.186Z,24.05
2023-02-06T21:40:33.602Z,24.04
2023-02-06T21:42:59.918Z,24.05
2023-02-06T21:45:26.230Z,24.06
2023-02-06T21:47:52.540Z,24.56
2023-02-06T21:50:18.924Z,24.92
2023-02-06T21:52:45.235Z,25.14
2023-02-06T21:55:11.747Z,25.24
2023-02-06T21:57:38.098Z,25.32
2023-02-06T22:00:04.810Z,25.37
2023-02-06T22:02:31.123Z,25.41
2023-02-06T22:04:59.588Z,25.44
2023-02-06T22:07:26.045Z,25.13
2023-02-06T22:09:52.463Z,24.56
2023-02-06T22:12:18.767Z,24.94
2023-02-06T22:14:45.110Z,25.21
2023-02-06T22:17:11.455Z,25.32
2023-02-06T22:19:37.774Z,25.35
2023-02-06T22:22:04.108Z,25.38
2023-02-06T22:24:30.440Z,25.37
2023-02-06T22:26:57.095Z,25.43
2023-02-06T22:29:23.493Z,25.37
2023-02-06T22:31:50.006Z,25.37
2023-02-06T22:34:17.822Z,25.39
2023-02-06T22:36:44.663Z,25.36
2023-02-06T22:39:12.711Z,25.29
2023-02-06T22:41:40.027Z,25.27
2023-02-06T22:44:06.351Z,25.21
2023-02-06T22:46:34.049Z,25.15
2023-02-06T22:49:00.376Z,25.13
2023-02-06T22:51:26.752Z,25.11
2023-02-06T22:53:53.088Z,25.12
2023-02-06T22:56:32.119Z,25.04
2023-02-06T22:58:58.363Z,24.98
2023-02-06T23:01:25.540Z,24.96
2023-02-06T23:03:52.376Z,24.92
2023-02-06T23:06:18.940Z,24.89
2023-02-06T23:08:45.248Z,24.88
2023-02-06T23:11:11.785Z,24.29
2023-02-06T23:13:38.220Z,24.04
2023-02-06T23:16:04.642Z,23.78
2023-02-06T23:18:31.069Z,23.77
2023-02-06T23:21:01.165Z,23.80
2023-02-06T23:23:27.682Z,23.80
2023-02-06T23:25:54.081Z,23.80
2023-02-06T23:28:20.764Z,23.77
2023-02-06T23:30:47.146Z,23.75
2023-02-06T23:33:13.528Z,23.71
2023-02-06T23:35:40.024Z,23.70
2023-02-06T23:38:06.471Z,23.64
2023-02-06T23:40:33.111Z,23.65
2023-02-06T23:42:59.488Z,23.62
2023-02-06T23:45:25.931Z,23.51
2023-02-06T23:47:52.348Z,23.45
2023-02-06T23:50:18.689Z,23.44
2023-02-06T23:52:45.020Z,23.36
2023-02-06T23:55:11.496Z,23.32
2023-02-06T23:57:38.142Z,23.27
